Time;durP1;ratioP1;P1;durP2;ratioP2;P2;SDS_P1;SDS_P2;PMS_P1;PMS_P2;Temp;Humidity;BMP_temperature;BMP_pressure;BME280_temperature;BME280_humidity;BME280_pressure;Samples;Min_cycle;Max_cycle;Signal;HPM_P1;HPM_P2
2023/01/15 04:32:30;;;;;;;20.00;11.40;;;;;;;-1.63;100.00;100177.95;102611;1291;615139;-61
2023/01/15 04:34:57;;;;;;;23.70;12.70;;;;;;;-0.95;100.00;100206.08;103547;1267;59450;-60
2023/01/15 04:37:26;;;;;;;23.10;13.30;;;;;;;-0.71;100.00;100206.56;103582;1282;60310;-60
2023/01/15 04:45:27;;;;;;;24.80;13.20;;;;;;;-0.29;100.00;100183.75;103636;1266;156702;-60
2023/01/15 04:47:54;;;;;;;22.00;13.10;;;;;;;-0.21;100.00;100176.44;103902;1267;71631;-60
2023/01/15 04:50:21;;;;;;;24.40;13.70;;;;;;;-0.13;100.00;100170.46;103880;1266;60239;-61
2023/01/15 04:52:49;;;;;;;23.40;13.00;;;;;;;-0.05;100.00;100170.39;104049;1256;60281;-62
2023/01/15 04:55:16;;;;;;;;;;;;;;;0.03;100.00;100167.85;104129;1260;71359;-61
2023/01/15 04:57:43;;;;;;;25.80;14.40;;;;;;;0.06;100.00;100161.85;104146;1259;68999;-60
2023/01/15 05:00:10;;;;;;;25.20;13.50;;;;;;;0.14;100.00;100157.44;104029;1261;72176;-61
2023/01/15 05:02:38;;;;;;;22.60;13.80;;;;;;;0.21;100.00;100155.41;104354;1254;62115;-60
2023/01/15 05:05:06;;;;;;;21.80;13.10;;;;;;;0.24;100.00;100154.06;104349;1255;59740;-62
2023/01/15 05:07:37;;;;;;;22.20;12.80;;;;;;;0.27;100.00;100154.94;104359;1268;72149;-61
2023/01/15 05:10:05;;;;;;;20.70;12.70;;;;;;;0.28;100.00;100158.23;104181;1275;68758;-60
2023/01/15 05:12:32;;;;;;;21.90;12.00;;;;;;;0.29;100.00;100161.00;104347;1269;73136;-61
2023/01/15 05:14:59;;;;;;;23.80;13.20;;;;;;;0.32;100.00;100163.25;104271;1268;61483;-61
2023/01/15 05:17:26;;;;;;;21.70;13.00;;;;;;;0.37;100.00;100165.54;104261;1275;59737;-61
2023/01/15 05:19:53;;;;;;;22.50;12.80;;;;;;;0.41;100.00;100169.34;104297;1257;73315;-61
2023/01/15 05:22:20;;;;;;;24.50;13.70;;;;;;;0.42;100.00;100167.98;104371;1253;69687;-61
2023/01/15 05:24:47;;;;;;;21.80;12.90;;;;;;;0.39;100.00;100176.23;104357;1253;72017;-61
2023/01/15 05:27:14;;;;;;;20.20;11.90;;;;;;;0.42;100.00;100179.88;104332;1269;61310;-60
2023/01/15 05:29:42;;;;;;;18.70;11.60;;;;;;;0.49;100.00;100183.20;104306;1259;59728;-61
2023/01/15 05:32:09;;;;;;;20.80;12.80;;;;;;;0.53;100.00;100179.27;104408;1256;72682;-62
2023/01/15 05:34:36;;;;;;;21.10;12.30;;;;;;;0.49;100.00;100174.08;104296;1259;68886;-61
2023/01/15 05:37:03;;;;;;;20.00;11.70;;;;;;;0.45;100.00;100176.98;104382;1272;72816;-61
2023/01/15 05:39:30;;;;;;;19.50;11.50;;;;;;;0.47;100.00;100179.23;104200;1253;61324;-62
2023/01/15 05:41:57;;;;;;;19.20;11.30;;;;;;;0.50;100.00;100177.52;104361;1256;59608;-61
2023/01/15 05:44:28;;;;;;;18.00;11.70;;;;;;;0.52;100.00;100178.74;104423;1257;73270;-61
2023/01/15 05:46:57;;;;;;;21.70;12.20;;;;;;;0.50;100.00;100177.00;104470;1268;68453;-61
2023/01/15 05:49:30;;;;;;;22.50;12.40;;;;;;;0.44;100.00;100177.48;104347;1252;72762;-61
2023/01/15 05:51:57;;;;;;;19.10;11.60;;;;;;;0.45;100.00;100176.27;104390;1254;60056;-61
2023/01/15 06:27:43;;;;;;;24.80;12.90;;;;;;;-1.39;100.00;100203.77;102376;1280;614552;-59
2023/01/15 06:30:11;;;;;;;27.10;13.80;;;;;;;-0.83;100.00;100217.95;103835;1269;59439;-59
2023/01/15 06:32:38;;;;;;;26.90;14.00;;;;;;;-0.63;100.00;100214.75;103653;1276;60370;-59
2023/01/15 06:35:06;;;;;;;28.70;13.70;;;;;;;-0.48;100.00;100205.27;103635;1273;71958;-60
2023/01/15 06:37:34;;;;;;;29.20;14.80;;;;;;;-0.34;100.00;100198.19;103389;1274;68611;-59
2023/01/15 06:40:03;;;;;;;26.80;14.80;;;;;;;-0.22;100.00;100189.01;103173;1274;201610;-60
2023/01/15 06:48:03;;;;;;;27.60;14.90;;;;;;;0.02;100.00;100174.06;103882;1266;72259;-61
2023/01/15 06:50:31;;;;;;;23.10;13.70;;;;;;;0.12;100.00;100171.21;103385;1273;69958;-60
2023/01/15 06:52:58;;;;;;;23.10;13.40;;;;;;;0.19;100.00;100163.52;103825;1269;71791;-60
2023/01/15 06:55:25;;;;;;;23.20;12.80;;;;;;;0.24;100.00;100159.23;103932;1266;59740;-62
2023/01/15 06:57:53;;;;;;;;;;;;;;;0.24;100.00;100159.39;103552;1276;60947;-61
2023/01/15 07:00:21;;;;;;;22.90;11.80;;;;;;;0.27;100.00;100164.60;103568;1265;74225;-60
2023/01/15 07:02:49;;;;;;;23.10;13.30;;;;;;;0.40;100.00;100165.73;103421;1264;69766;-60
2023/01/15 07:05:16;;;;;;;22.70;12.00;;;;;;;0.45;100.00;100164.21;103454;1266;73957;-61
2023/01/15 07:07:43;;;;;;;20.80;11.70;;;;;;;0.42;100.00;100168.15;103866;1262;59744;-60
2023/01/15 07:10:12;;;;;;;21.70;12.40;;;;;;;0.44;100.00;100169.20;103756;1272;59619;-59
2023/01/15 07:12:39;;;;;;;17.80;10.20;;;;;;;0.52;100.00;100168.05;103873;1264;72224;-60
2023/01/15 07:15:08;;;;;;;19.30;11.50;;;;;;;0.55;100.00;100166.69;103488;1269;70924;-61
2023/01/15 07:17:37;;;;;;;19.20;11.20;;;;;;;0.53;100.00;100166.33;103684;1269;73629;-59
2023/01/15 12:15:41;;;;;;;7.60;5.10;;;;;;;-0.75;100.00;99945.35;102461;1292;600807;-60
2023/01/15 12:18:20;;;;;;;12.60;7.70;;;;;;;-0.14;100.00;99960.92;103730;1267;61792;-58
2023/01/15 12:20:53;;;;;;;12.50;7.80;;;;;;;0.14;100.00;99956.24;103696;1267;60647;-59
2023/01/15 12:23:54;;;;;;;11.50;7.90;;;;;;;0.31;100.00;99950.79;103788;1267;72287;-57
2023/01/15 12:26:32;;;;;;;13.40;9.40;;;;;;;0.50;100.00;99950.34;103647;1267;69845;-58
2023/01/15 12:29:31;;;;;;;15.30;8.90;;;;;;;0.60;100.00;99951.23;103284;1270;257386;-58
2023/01/15 12:32:02;;;;;;;16.60;13.60;;;;;;;0.69;100.00;99953.34;103841;1264;63916;-59
2023/01/15 12:34:53;;;;;;;12.50;9.70;;;;;;;0.81;100.00;99950.77;104072;1272;60222;-57
2023/01/15 12:37:23;;;;;;;16.90;10.80;;;;;;;0.90;100.00;99944.39;104421;1264;72874;-58
2023/01/15 12:39:54;;;;;;;14.40;9.70;;;;;;;0.96;100.00;99946.45;104063;1264;72194;-58
2023/01/15 12:45:11;;;;;;;13.20;9.00;;;;;;;1.10;100.00;99945.11;104403;1258;59764;-58
2023/01/15 12:47:52;;;;;;;32.80;19.40;;;;;;;1.12;100.00;99939.75;104185;1257;61349;-58
2023/01/15 12:50:31;;;;;;;19.40;11.20;;;;;;;1.08;100.00;99933.35;103989;1273;73676;-59
2023/01/15 12:53:15;;;;;;;16.20;9.00;;;;;;;1.10;100.00;99933.36;104225;1262;70014;-58
2023/01/15 12:55:48;;;;;;;14.30;9.90;;;;;;;1.18;100.00;99932.84;104413;1261;72224;-59
2023/01/15 12:58:25;;;;;;;15.00;9.50;;;;;;;1.22;100.00;99926.45;104269;1254;59746;-59
2023/01/15 13:00:57;;;;;;;13.20;8.60;;;;;;;1.20;100.00;99923.86;104223;1264;60655;-57
2023/01/15 13:03:29;;;;;;;12.40;8.60;;;;;;;1.20;100.00;99931.63;104508;1264;73736;-59
2023/01/15 13:06:01;;;;;;;13.70;9.20;;;;;;;1.21;100.00;99924.55;104471;1260;72226;-58
2023/01/15 13:08:37;;;;;;;13.00;8.70;;;;;;;1.23;100.00;99912.11;105956;1256;72457;-59
2023/01/15 13:11:06;;;;;;;13.00;8.20;;;;;;;1.20;100.00;99897.98;104066;1269;61449;-59
2023/01/15 13:13:35;;;;;;;11.00;7.60;;;;;;;1.18;100.00;99901.59;103719;1272;60694;-59
2023/01/15 13:16:02;;;;;;;11.30;7.80;;;;;;;1.19;100.00;99902.98;104359;1262;73772;-62
2023/01/15 13:18:52;;;;;;;12.80;8.90;;;;;;;1.15;100.00;99903.31;103787;1264;70508;-60
2023/01/15 13:21:20;;;;;;;13.80;7.80;;;;;;;1.08;100.00;99907.11;103943;1262;72811;-59
2023/01/15 13:24:13;;;;;;;11.90;9.00;;;;;;;1.12;100.00;99906.59;103795;1262;61984;-60
2023/01/15 13:26:53;;;;;;;11.70;8.50;;;;;;;1.19;100.00;99903.48;103868;1260;61278;-60
2023/01/15 13:30:02;;;;;;;13.30;8.60;;;;;;;1.18;100.00;99892.60;104033;1278;74011;-60
2023/01/15 13:32:35;;;;;;;13.80;8.50;;;;;;;1.15;100.00;99888.98;104262;1261;69512;-60
2023/01/15 13:35:13;;;;;;;11.80;8.20;;;;;;;1.19;100.00;99889.15;104095;1261;73688;-60
2023/01/15 13:37:46;;;;;;;11.30;8.80;;;;;;;1.20;100.00;99891.74;103813;1264;59762;-59
2023/01/15 13:40:22;;;;;;;13.80;8.90;;;;;;;1.17;100.00;99891.91;103868;1280;62257;-59
2023/01/15 13:42:49;;;;;;;13.30;9.10;;;;;;;1.12;100.00;99889.85;103727;1278;74870;-61
2023/01/15 13:45:31;;;;;;;12.00;9.00;;;;;;;1.14;100.00;99883.97;103814;1264;70016;-62
2023/01/15 13:48:26;;;;;;;11.30;7.80;;;;;;;1.20;100.00;99883.63;103955;1263;72267;-62
2023/01/15 13:51:01;;;;;;;12.00;8.40;;;;;;;1.17;100.00;99881.38;104072;1261;60357;-62
2023/01/15 13:53:47;;;;;;;10.00;7.70;;;;;;;1.12;100.00;99884.48;104131;1275;62768;-59
2023/01/15 13:56:25;;;;;;;8.40;6.10;;;;;;;1.08;100.00;99892.10;103934;1260;73419;-59
2023/01/15 13:58:52;;;;;;;9.30;7.90;;;;;;;1.11;100.00;99890.19;104020;1259;70124;-61
2023/01/15 14:01:40;;;;;;;10.60;7.70;;;;;;;1.09;100.00;99894.17;103879;1265;71963;-58
2023/01/15 14:10:17;;;;;;;10.60;8.90;;;;;;;0.08;100.00;99921.05;102032;1281;619247;-64
2023/01/15 14:12:56;;;;;;;9.70;7.60;;;;;;;0.46;100.00;99925.32;103812;1280;60656;-62
2023/01/15 14:15:32;;;;;;;9.70;8.30;;;;;;;0.55;100.00;99920.17;103456;1271;60101;-60
2023/01/15 14:18:02;;;;;;;9.10;7.50;;;;;;;0.63;100.00;99914.84;103621;1267;72329;-64
2023/01/15 14:21:31;;;;;;;17.40;10.80;;;;;;;0.65;100.00;99908.11;105031;1266;68659;-65
2023/01/15 14:24:07;;;;;;;15.50;10.80;;;;;;;0.64;100.00;99910.36;104016;1264;119411;-62
2023/01/15 14:27:00;;;;;;;14.10;10.20;;;;;;;0.73;100.00;99910.38;103970;1258;60499;-63
2023/01/15 14:29:31;;;;;;;9.90;8.20;;;;;;;0.74;100.00;99900.02;103975;1273;60588;-61
2023/01/15 14:32:23;;;;;;;11.10;8.60;;;;;;;0.76;100.00;99894.33;104117;1264;71804;-62
2023/01/15 14:34:57;;;;;;;9.90;8.20;;;;;;;0.68;100.00;99884.30;103970;1262;68813;-64
2023/01/15 14:37:26;;;;;;;9.50;7.60;;;;;;;0.69;100.00;99871.55;104150;1263;72202;-62
2023/01/15 14:39:57;;;;;;;9.80;7.80;;;;;;;0.74;100.00;99867.91;103933;1263;59657;-64
2023/01/15 14:45:25;;;;;;;10.90;7.10;;;;;;;0.70;100.00;99867.75;103883;1281;73300;-64
2023/01/15 14:47:54;;;;;;;12.50;8.30;;;;;;;0.77;100.00;99859.98;104474;1269;70501;-64
2023/01/15 14:50:37;;;;;;;8.60;7.10;;;;;;;0.84;100.00;99854.98;104416;1258;73017;-65
2023/01/15 14:53:14;;;;;;;11.50;8.20;;;;;;;0.84;100.00;99845.15;104349;1254;60114;-66
2023/01/15 14:55:56;;;;;;;11.50;8.10;;;;;;;0.79;100.00;99840.66;104338;1261;60213;-65
2023/01/15 14:58:45;;;;;;;14.20;8.60;;;;;;;0.73;100.00;99843.24;104479;1254;72381;-63
2023/01/15 15:01:25;;;;;;;13.10;8.80;;;;;;;0.77;100.00;99842.55;104470;1270;68959;-65
2023/01/15 15:04:13;;;;;;;15.70;9.50;;;;;;;0.87;100.00;99842.38;104616;1254;72242;-64
2023/01/15 19:55:52;;;;;;;7.40;4.70;;;;;;;-1.45;100.00;99661.81;102283;1292;600778;-66
2023/01/15 19:58:20;;;;;;;9.90;6.50;;;;;;;-0.58;100.00;99697.19;103483;1274;63398;-64
2023/01/15 20:00:47;;;;;;;13.10;8.80;;;;;;;-0.34;100.00;99703.28;104125;1267;63862;-63
2023/01/15 20:03:14;;;;;;;15.90;9.40;;;;;;;-0.16;100.00;99700.39;104162;1263;74033;-68
2023/01/15 20:05:42;;;;;;;13.60;8.80;;;;;;;-0.01;100.00;99698.85;104220;1260;72811;-68
2023/01/15 20:08:16;;;;;;;16.20;8.80;;;;;;;0.11;100.00;99697.49;104266;1260;75314;-70
2023/01/15 20:10:45;;;;;;;12.90;7.90;;;;;;;0.21;100.00;99684.55;104119;1256;62263;-68
2023/01/15 20:16:17;;;;;;;13.20;8.70;;;;;;;0.36;100.00;99651.10;104141;1262;73664;-69
2023/01/15 20:18:47;;;;;;;10.60;7.90;;;;;;;0.47;100.00;99637.12;104129;1260;70072;-67
2023/01/15 20:21:15;;;;;;;13.90;7.50;;;;;;;0.51;100.00;99625.55;105505;1257;74678;-64
2023/01/15 20:23:43;;;;;;;13.80;8.10;;;;;;;0.56;100.00;99624.85;104132;1273;62384;-64
2023/01/15 20:26:12;;;;;;;10.00;7.50;;;;;;;0.66;100.00;99619.98;104323;1260;61356;-63
2023/01/15 20:28:41;;;;;;;8.70;6.70;;;;;;;0.67;100.00;99619.46;104140;1273;75197;-63
2023/01/15 20:31:15;;;;;;;10.10;7.20;;;;;;;0.71;100.00;99623.77;104098;1266;71248;-68
2023/01/15 20:33:43;;;;;;;11.80;6.80;;;;;;;0.68;100.00;99623.77;104108;1272;73857;-65
2023/01/15 20:36:10;;;;;;;13.00;7.40;;;;;;;0.59;100.00;99620.00;104139;1264;61988;-64
2023/01/15 20:38:37;;;;;;;12.50;6.80;;;;;;;0.60;100.00;99624.16;104155;1276;61983;-63
2023/01/15 20:46:38;;;;;;;8.40;6.60;;;;;;;0.58;100.00;99634.84;104465;1259;73872;-66
2023/01/15 20:49:23;;;;;;;8.40;6.60;;;;;;;0.53;100.00;99637.45;104219;1256;64006;-65
2023/01/15 20:51:53;;;;;;;11.80;7.10;;;;;;;0.50;100.00;99638.83;104206;1261;61514;-67
2023/01/15 20:54:21;;;;;;;8.70;6.50;;;;;;;0.56;100.00;99643.47;104287;1260;75349;-66
2023/01/15 20:56:48;;;;;;;9.10;6.60;;;;;;;0.62;100.00;99646.90;104092;1266;71695;-66
2023/01/15 20:59:15;;;;;;;8.50;7.40;;;;;;;0.64;100.00;99647.26;104377;1262;73060;-68
2023/01/15 21:01:42;;;;;;;9.80;7.10;;;;;;;0.60;100.00;99648.63;104063;1278;61615;-65
2023/01/15 21:04:12;;;;;;;11.80;6.60;;;;;;;0.60;100.00;99650.20;104396;1263;61825;-65
2023/01/15 21:06:39;;;;;;;10.90;6.40;;;;;;;0.64;100.00;99658.46;104280;1260;76484;-68
2023/01/15 21:09:07;;;;;;;8.90;6.50;;;;;;;0.68;100.00;99655.70;104254;1257;72133;-66
2023/01/15 21:11:34;;;;;;;;;;;;;;;0.68;100.00;99657.25;104347;1269;76712;-65
2023/01/15 21:14:01;;;;;;;9.60;6.30;;;;;;;0.61;100.00;99655.19;104446;1260;60955;-65
2023/01/15 21:16:28;;;;;;;9.00;6.80;;;;;;;0.63;100.00;99656.05;104588;1272;61046;-69
2023/01/15 21:18:59;;;;;;;9.90;6.00;;;;;;;0.66;100.00;99653.11;104130;1258;74956;-69
2023/01/15 21:21:27;;;;;;;11.70;6.20;;;;;;;0.66;100.00;99656.73;104647;1257;71573;-68
2023/01/15 21:23:54;;;;;;;9.40;6.20;;;;;;;0.63;100.00;99659.33;104721;1251;75182;-65
2023/01/15 21:26:23;;;;;;;9.30;5.80;;;;;;;0.58;100.00;99657.45;104500;1253;62727;-64
2023/01/15 21:28:54;;;;;;;8.60;6.40;;;;;;;0.52;100.00;99656.08;104569;1257;61648;-65
2023/01/15 21:31:21;;;;;;;11.70;6.80;;;;;;;0.50;100.00;99656.94;104593;1257;74899;-63
2023/01/15 21:33:51;;;;;;;7.90;5.50;;;;;;;0.50;100.00;99659.02;104484;1256;70489;-65
2023/01/15 21:36:19;;;;;;;7.90;5.80;;;;;;;0.48;100.00;99657.64;104544;1274;75241;-63
2023/01/15 21:38:50;;;;;;;7.30;5.80;;;;;;;0.43;100.00;99655.92;104904;1257;60854;-64
2023/01/15 21:41:17;;;;;;;7.10;5.60;;;;;;;0.32;100.00;99655.23;104751;1253;63104;-64
2023/01/15 21:46:30;;;;;;;8.70;5.40;;;;;;;0.37;100.00;99647.81;104754;1253;71902;-64
2023/01/15 21:48:58;;;;;;;7.70;5.90;;;;;;;0.37;100.00;99649.36;104694;1257;74439;-65
2023/01/15 21:51:25;;;;;;;7.60;6.40;;;;;;;0.36;100.00;99651.61;104684;1251;61273;-65
2023/01/15 21:53:52;;;;;;;9.40;6.70;;;;;;;0.36;100.00;99655.41;104527;1267;63491;-65
2023/01/15 21:56:20;;;;;;;7.50;6.00;;;;;;;0.39;100.00;99654.71;104664;1258;73726;-63
2023/01/15 21:58:47;;;;;;;7.10;5.00;;;;;;;0.45;100.00;99652.98;104486;1259;72034;-65
2023/01/15 22:01:14;;;;;;;8.30;6.10;;;;;;;0.45;100.00;99646.95;104437;1254;73290;-65
2023/01/15 22:03:41;;;;;;;7.30;5.70;;;;;;;0.48;100.00;99638.84;104468;1276;61526;-64
